sensor_id;sensor_type;location;lat;lon;timestamp;pressure;altitude;pressure_sealevel;temperature;humidity
68179;BME280;54998;42.656;23.382;2023-04-23T00:00:05;94806.38;;;6.55;73.85
68179;BME280;54998;42.656;23.382;2023-04-23T00:02:32;94807.06;;;6.46;74.57
68179;BME280;54998;42.656;23.382;2023-04-23T00:05:00;94811.00;;;6.39;74.83
68179;BME280;54998;42.656;23.382;2023-04-23T00:07:28;94801.13;;;6.34;75.26
68179;BME280;54998;42.656;23.382;2023-04-23T00:09:58;94798.13;;;6.29;75.53
68179;BME280;54998;42.656;23.382;2023-04-23T00:12:24;94806.47;;;6.31;75.59
68179;BME280;54998;42.656;23.382;2023-04-23T00:14:49;94793.16;;;6.28;76.03
68179;BME280;54998;42.656;23.382;2023-04-23T00:17:15;94793.94;;;6.40;75.73
68179;BME280;54998;42.656;23.382;2023-04-23T00:19:40;94799.28;;;6.48;75.48
68179;BME280;54998;42.656;23.382;2023-04-23T00:22:06;94799.97;;;6.50;75.22
68179;BME280;54998;42.656;23.382;2023-04-23T00:24:32;94801.13;;;6.57;74.92
68179;BME280;54998;42.656;23.382;2023-04-23T00:27:00;94805.22;;;6.60;75.15
68179;BME280;54998;42.656;23.382;2023-04-23T00:29:25;94800.31;;;6.56;74.34
68179;BME280;54998;42.656;23.382;2023-04-23T00:31:51;94802.19;;;6.54;74.43
68179;BME280;54998;42.656;23.382;2023-04-23T00:34:16;94797.69;;;6.35;73.99
68179;BME280;54998;42.656;23.382;2023-04-23T00:36:42;94798.84;;;6.31;74.18
68179;BME280;54998;42.656;23.382;2023-04-23T00:39:07;94792.22;;;6.29;74.40
68179;BME280;54998;42.656;23.382;2023-04-23T00:41:34;94798.94;;;6.30;74.29
68179;BME280;54998;42.656;23.382;2023-04-23T00:43:59;94792.56;;;6.24;74.61
68179;BME280;54998;42.656;23.382;2023-04-23T00:46:25;94791.16;;;6.20;74.37
68179;BME280;54998;42.656;23.382;2023-04-23T00:48:53;94801.69;;;6.15;73.95
68179;BME280;54998;42.656;23.382;2023-04-23T00:51:20;94791.28;;;6.07;74.19
68179;BME280;54998;42.656;23.382;2023-04-23T00:53:45;94796.25;;;6.09;73.94
68179;BME280;54998;42.656;23.382;2023-04-23T00:56:11;94798.44;;;6.02;74.17
68179;BME280;54998;42.656;23.382;2023-04-23T00:58:37;94790.41;;;5.84;74.53
68179;BME280;54998;42.656;23.382;2023-04-23T01:01:03;94790.03;;;5.66;75.08
68179;BME280;54998;42.656;23.382;2023-04-23T01:03:29;94793.13;;;5.70;75.52
68179;BME280;54998;42.656;23.382;2023-04-23T01:05:57;94795.13;;;5.66;75.39
68179;BME280;54998;42.656;23.382;2023-04-23T01:08:23;94798.81;;;5.62;75.14
68179;BME280;54998;42.656;23.382;2023-04-23T01:10:49;94799.13;;;5.58;75.60
68179;BME280;54998;42.656;23.382;2023-04-23T01:13:16;94792.75;;;5.52;76.23
68179;BME280;54998;42.656;23.382;2023-04-23T01:15:43;94788.03;;;5.59;77.37
68179;BME280;54998;42.656;23.382;2023-04-23T01:18:09;94794.50;;;5.63;77.00
68179;BME280;54998;42.656;23.382;2023-04-23T01:20:35;94790.81;;;5.67;76.57
68179;BME280;54998;42.656;23.382;2023-04-23T01:23:05;94789.66;;;5.60;76.72
68179;BME280;54998;42.656;23.382;2023-04-23T01:25:31;94788.03;;;5.59;77.01
68179;BME280;54998;42.656;23.382;2023-04-23T01:27:57;94793.13;;;5.70;76.42
68179;BME280;54998;42.656;23.382;2023-04-23T01:30:25;94792.00;;;5.74;76.43
68179;BME280;54998;42.656;23.382;2023-04-23T01:32:52;94794.63;;;5.72;76.37
68179;BME280;54998;42.656;23.382;2023-04-23T01:35:18;94801.47;;;5.72;76.48
68179;BME280;54998;42.656;23.382;2023-04-23T01:37:44;94805.66;;;5.73;75.95
68179;BME280;54998;42.656;23.382;2023-04-23T01:40:10;94801.81;;;5.67;76.17
68179;BME280;54998;42.656;23.382;2023-04-23T01:42:37;94802.31;;;5.48;76.50
68179;BME280;54998;42.656;23.382;2023-04-23T01:45:03;94807.41;;;5.48;76.54
68179;BME280;54998;42.656;23.382;2023-04-23T01:47:28;94813.34;;;5.49;76.47
68179;BME280;54998;42.656;23.382;2023-04-23T01:49:54;94812.38;;;5.39;77.13
68179;BME280;54998;42.656;23.382;2023-04-23T01:52:19;94816.41;;;5.41;77.10
68179;BME280;54998;42.656;23.382;2023-04-23T01:54:45;94816.06;;;5.34;77.68
68179;BME280;54998;42.656;23.382;2023-04-23T01:57:10;94818.00;;;5.31;77.85
68179;BME280;54998;42.656;23.382;2023-04-23T01:59:36;94810.22;;;5.21;78.82
68179;BME280;54998;42.656;23.382;2023-04-23T02:02:02;94819.22;;;5.14;78.55
68179;BME280;54998;42.656;23.382;2023-04-23T02:04:28;94812.31;;;5.03;79.27
68179;BME280;54998;42.656;23.382;2023-04-23T02:06:54;94812.31;;;5.03;79.53
68179;BME280;54998;42.656;23.382;2023-04-23T02:09:20;94818.00;;;5.07;nan
68179;BME280;54998;42.656;23.382;2023-04-23T02:11:45;94813.84;;;5.06;79.54
68179;BME280;54998;42.656;23.382;2023-04-23T02:14:11;94808.03;;;5.04;79.55
68179;BME280;54998;42.656;23.382;2023-04-23T02:16:36;94814.59;;;4.95;79.90
68179;BME280;54998;42.656;23.382;2023-04-23T02:19:02;94802.91;;;4.92;80.61
68179;BME280;54998;42.656;23.382;2023-04-23T02:21:28;94818.63;;;4.98;81.35
68179;BME280;54998;42.656;23.382;2023-04-23T02:23:54;94810.91;;;4.99;80.96
68179;BME280;54998;42.656;23.382;2023-04-23T02:26:20;94817.09;;;5.08;80.98
68179;BME280;54998;42.656;23.382;2023-04-23T02:28:47;94822.16;;;5.08;80.91
68179;BME280;54998;42.656;23.382;2023-04-23T02:31:12;94818.00;;;5.07;80.47
68179;BME280;54998;42.656;23.382;2023-04-23T02:33:40;94811.38;;;5.04;80.78
68179;BME280;54998;42.656;23.382;2023-04-23T02:36:06;94814.63;;;5.06;80.43
68179;BME280;54998;42.656;23.382;2023-04-23T02:38:32;94821.13;;;5.10;80.52
68179;BME280;54998;42.656;23.382;2023-04-23T02:40:57;94820.28;;;5.23;80.05
68179;BME280;54998;42.656;23.382;2023-04-23T02:43:23;94817.50;;;5.26;80.31
68179;BME280;54998;42.656;23.382;2023-04-23T02:45:48;94815.19;;;5.23;79.47
68179;BME280;54998;42.656;23.382;2023-04-23T02:48:13;94826.50;;;5.19;79.31
68179;BME280;54998;42.656;23.382;2023-04-23T02:50:39;94814.53;;;5.08;79.21
68179;BME280;54998;42.656;23.382;2023-04-23T02:53:05;94818.31;;;5.02;78.94
68179;BME280;54998;42.656;23.382;2023-04-23T02:55:30;94820.16;;;5.00;78.88
68179;BME280;54998;42.656;23.382;2023-04-23T02:57:58;94817.56;;;4.89;79.34
68179;BME280;54998;42.656;23.382;2023-04-23T03:00:25;94824.88;;;4.81;79.60
68179;BME280;54998;42.656;23.382;2023-04-23T03:02:50;94827.97;;;4.73;79.83
68179;BME280;54998;42.656;23.382;2023-04-23T03:05:16;94825.63;;;4.70;79.87
68179;BME280;54998;42.656;23.382;2023-04-23T03:07:41;94824.91;;;4.68;79.97
68179;BME280;54998;42.656;23.382;2023-04-23T03:10:07;94822.78;;;4.62;80.13
68179;BME280;54998;42.656;23.382;2023-04-23T03:12:33;94831.34;;;4.61;80.13
68179;BME280;54998;42.656;23.382;2023-04-23T03:14:58;94835.81;;;4.44;81.15
68179;BME280;54998;42.656;23.382;2023-04-23T03:17:24;94833.50;;;4.41;81.44
68179;BME280;54998;42.656;23.382;2023-04-23T03:19:49;94831.13;;;4.51;81.67
68179;BME280;54998;42.656;23.382;2023-04-23T03:22:15;94834.78;;;4.60;81.29
68179;BME280;54998;42.656;23.382;2023-04-23T03:24:40;94834.28;;;4.67;80.87
68179;BME280;54998;42.656;23.382;2023-04-23T03:27:08;94837.63;;;4.68;80.77
68179;BME280;54998;42.656;23.382;2023-04-23T03:29:34;94842.53;;;4.71;80.72
68179;BME280;54998;42.656;23.382;2023-04-23T03:32:00;94834.78;;;4.60;80.88
68179;BME280;54998;42.656;23.382;2023-04-23T03:34:25;94835.50;;;4.62;81.00
68179;BME280;54998;42.656;23.382;2023-04-23T03:36:51;94844.75;;;4.63;81.13
68179;BME280;54998;42.656;23.382;2023-04-23T03:39:16;94841.28;;;4.64;81.54
68179;BME280;54998;42.656;23.382;2023-04-23T03:41:42;94850.16;;;4.71;80.87
68179;BME280;54998;42.656;23.382;2023-04-23T03:44:07;94843.22;;;4.73;80.84
68179;BME280;54998;42.656;23.382;2023-04-23T03:49:25;94840.38;;;4.78;80.34
68179;BME280;54998;42.656;23.382;2023-04-23T03:51:53;94847.88;;;4.79;79.97
68179;BME280;54998;42.656;23.382;2023-04-23T03:54:21;94848.00;;;4.78;79.61
68179;BME280;54998;42.656;23.382;2023-04-23T03:56:51;94858.16;;;4.78;79.76
68179;BME280;54998;42.656;23.382;2023-04-23T03:59:19;94856.34;;;4.80;79.49
68179;BME280;54998;42.656;23.382;2023-04-23T04:01:47;94860.38;;;4.82;79.38
68179;BME280;54998;42.656;23.382;2023-04-23T04:04:13;94845.78;;;4.73;79.64
68179;BME280;54998;42.656;23.382;2023-04-23T04:06:48;94861.50;;;4.91;79.57
68179;BME280;54998;42.656;23.382;2023-04-23T04:09:22;94863.81;;;4.94;79.75
68179;BME280;54998;42.656;23.382;2023-04-23T04:12:12;94861.78;;;4.99;79.14
68179;BME280;54998;42.656;23.382;2023-04-23T04:14:38;94865.22;;;4.98;79.43
68179;BME280;54998;42.656;23.382;2023-04-23T04:20:35;94872.84;;;4.98;79.69
68179;BME280;54998;42.656;23.382;2023-04-23T04:23:46;94863.19;;;5.03;79.36
68179;BME280;54998;42.656;23.382;2023-04-23T04:25:57;94859.13;;;4.88;79.59
68179;BME280;54998;42.656;23.382;2023-04-23T04:28:26;94865.75;;;5.03;79.57
68179;BME280;54998;42.656;23.382;2023-04-23T04:30:52;94855.97;;;4.97;79.46
68179;BME280;54998;42.656;23.382;2023-04-23T04:33:25;94879.38;;;5.26;79.31
68179;BME280;54998;42.656;23.382;2023-04-23T04:35:59;94869.97;;;5.40;78.45
68179;BME280;54998;42.656;23.382;2023-04-23T04:38:32;94862.00;;;5.44;78.16
68179;BME280;54998;42.656;23.382;2023-04-23T04:40:59;94869.09;;;5.52;77.94
68179;BME280;54998;42.656;23.382;2023-04-23T04:43:35;94874.41;;;5.73;77.18
68179;BME280;54998;42.656;23.382;2023-04-23T04:46:09;94880.25;;;5.86;76.95
68179;BME280;54998;42.656;23.382;2023-04-23T04:48:39;94871.63;;;6.00;76.85
68179;BME280;54998;42.656;23.382;2023-04-23T04:54:37;94870.66;;;6.36;75.75
68179;BME280;54998;42.656;23.382;2023-04-23T05:14:18;94878.88;;;7.19;72.54
68179;BME280;54998;42.656;23.382;2023-04-23T05:16:51;94892.09;;;7.24;71.33
68179;BME280;54998;42.656;23.382;2023-04-23T05:19:29;94885.16;;;7.15;71.99
68179;BME280;54998;42.656;23.382;2023-04-23T05:21:56;94887.81;;;7.25;72.01
68179;BME280;54998;42.656;23.382;2023-04-23T05:24:29;94874.88;;;7.49;70.51
68179;BME280;54998;42.656;23.382;2023-04-23T05:27:06;94888.78;;;7.88;70.74
68179;BME280;54998;42.656;23.382;2023-04-23T05:29:31;94884.56;;;9.02;67.12
68179;BME280;54998;42.656;23.382;2023-04-23T05:31:57;94890.97;;;10.73;60.95
68179;BME280;54998;42.656;23.382;2023-04-23T05:34:22;94881.19;;;12.23;56.35
68179;BME280;54998;42.656;23.382;2023-04-23T05:36:50;94885.19;;;13.30;52.46
68179;BME280;54998;42.656;23.382;2023-04-23T05:39:27;94876.00;;;14.03;49.42
68179;BME280;54998;42.656;23.382;2023-04-23T05:41:58;94877.41;;;14.47;47.12
68179;BME280;54998;42.656;23.382;2023-04-23T05:44:24;94886.69;;;15.05;46.68
68179;BME280;54998;42.656;23.382;2023-04-23T05:46:49;94880.25;;;15.40;45.29
68179;BME280;54998;42.656;23.382;2023-04-23T05:55:20;94872.47;;;16.03;44.18
68179;BME280;54998;42.656;23.382;2023-04-23T05:57:56;94863.94;;;15.94;43.56
68179;BME280;54998;42.656;23.382;2023-04-23T06:00:42;94881.75;;;16.50;41.57
68179;BME280;54998;42.656;23.382;2023-04-23T06:03:10;94866.66;;;15.70;43.85
68179;BME280;54998;42.656;23.382;2023-04-23T06:05:42;94870.47;;;17.40;40.14
68179;BME280;54998;42.656;23.382;2023-04-23T06:08:16;94871.16;;;19.06;37.51
68179;BME280;54998;42.656;23.382;2023-04-23T06:10:48;94884.25;;;17.92;38.56
68179;BME280;54998;42.656;23.382;2023-04-23T06:13:13;94879.81;;;17.20;40.61
68179;BME280;54998;42.656;23.382;2023-04-23T06:15:38;94885.97;;;19.13;37.11
68179;BME280;54998;42.656;23.382;2023-04-23T06:18:04;94878.72;;;18.73;37.55
68179;BME280;54998;42.656;23.382;2023-04-23T06:20:30;94876.09;;;19.84;36.14
68179;BME280;54998;42.656;23.382;2023-04-23T06:22:55;94873.75;;;20.89;33.93
68179;BME280;54998;42.656;23.382;2023-04-23T06:25:21;94879.19;;;21.53;33.27
68179;BME280;54998;42.656;23.382;2023-04-23T06:27:58;94876.31;;;19.96;35.91
68179;BME280;54998;42.656;23.382;2023-04-23T06:33:26;94869.53;;;22.30;32.01
68179;BME280;54998;42.656;23.382;2023-04-23T06:36:10;94874.03;;;21.26;33.93
68179;BME280;54998;42.656;23.382;2023-04-23T06:41:30;94872.78;;;21.49;33.35
68179;BME280;54998;42.656;23.382;2023-04-23T06:44:24;94869.50;;;18.71;37.83
68179;BME280;54998;42.656;23.382;2023-04-23T06:46:50;94848.59;;;19.75;36.04
68179;BME280;54998;42.656;23.382;2023-04-23T06:49:18;94883.16;;;19.07;37.98
68179;BME280;54998;42.656;23.382;2023-04-23T06:51:43;94881.97;;;20.46;35.20
68179;BME280;54998;42.656;23.382;2023-04-23T06:54:09;94882.75;;;19.45;37.39
68179;BME280;54998;42.656;23.382;2023-04-23T06:56:34;94880.88;;;21.34;34.15
68179;BME280;54998;42.656;23.382;2023-04-23T06:59:00;94874.31;;;20.98;34.92
68179;BME280;54998;42.656;23.382;2023-04-23T07:01:26;94881.00;;;21.52;34.13
68179;BME280;54998;42.656;23.382;2023-04-23T07:03:51;94872.19;;;21.47;33.86
68179;BME280;54998;42.656;23.382;2023-04-23T07:06:18;94864.91;;;23.75;30.32
68179;BME280;54998;42.656;23.382;2023-04-23T07:08:44;94868.75;;;25.51;28.16
68179;BME280;54998;42.656;23.382;2023-04-23T07:11:09;94879.19;;;23.05;30.81
68179;BME280;54998;42.656;23.382;2023-04-23T08:29:46;94856.84;;;23.40;29.75
68179;BME280;54998;42.656;23.382;2023-04-23T08:32:11;94845.22;;;25.44;26.89
68179;BME280;54998;42.656;23.382;2023-04-23T08:34:37;94843.09;;;23.93;28.70
68179;BME280;54998;42.656;23.382;2023-04-23T08:37:02;94842.06;;;23.94;28.54
68179;BME280;54998;42.656;23.382;2023-04-23T08:39:28;94841.44;;;24.10;28.21
68179;BME280;54998;42.656;23.382;2023-04-23T08:42:03;94839.94;;;24.68;27.89
68179;BME280;54998;42.656;23.382;2023-04-23T08:44:31;94837.28;;;25.85;26.17
68179;BME280;54998;42.656;23.382;2023-04-23T08:46:57;94837.38;;;24.38;27.41
68179;BME280;54998;42.656;23.382;2023-04-23T08:49:25;94837.00;;;23.13;29.40
68179;BME280;54998;42.656;23.382;2023-04-23T08:51:54;94831.44;;;23.58;28.70
68179;BME280;54998;42.656;23.382;2023-04-23T08:54:26;94838.22;;;24.86;26.66
68179;BME280;54998;42.656;23.382;2023-04-23T08:56:56;94834.28;;;26.05;25.81
68179;BME280;54998;42.656;23.382;2023-04-23T08:59:23;94822.88;;;26.83;24.22
68179;BME280;54998;42.656;23.382;2023-04-23T09:01:49;94825.09;;;25.50;25.84
68179;BME280;54998;42.656;23.382;2023-04-23T09:04:15;94823.75;;;26.05;25.13
68179;BME280;54998;42.656;23.382;2023-04-23T09:06:42;94818.06;;;25.67;25.72
68179;BME280;54998;42.656;23.382;2023-04-23T09:09:08;94824.97;;;25.85;25.30
68179;BME280;54998;42.656;23.382;2023-04-23T09:11:35;94819.97;;;25.43;25.48
68179;BME280;54998;42.656;23.382;2023-04-23T09:14:01;94812.22;;;25.48;25.58
68179;BME280;54998;42.656;23.382;2023-04-23T09:16:27;94817.16;;;24.15;27.26
68179;BME280;54998;42.656;23.382;2023-04-23T09:18:52;94823.72;;;24.71;26.78
68179;BME280;54998;42.656;23.382;2023-04-23T09:21:19;94816.19;;;23.37;28.74
68179;BME280;54998;42.656;23.382;2023-04-23T09:23:44;94812.41;;;25.06;26.85
68179;BME280;54998;42.656;23.382;2023-04-23T09:26:18;94816.31;;;23.61;28.24
68179;BME280;54998;42.656;23.382;2023-04-23T09:28:48;94814.19;;;20.66;32.40
68179;BME280;54998;42.656;23.382;2023-04-23T09:31:15;94815.19;;;22.07;30.72
68179;BME280;54998;42.656;23.382;2023-04-23T09:33:49;94813.47;;;22.51;29.43
68179;BME280;54998;42.656;23.382;2023-04-23T09:36:15;94806.09;;;24.13;27.34
68179;BME280;54998;42.656;23.382;2023-04-23T09:38:41;94794.22;;;23.08;28.50
68179;BME280;54998;42.656;23.382;2023-04-23T09:41:28;94787.00;;;24.71;25.71
68179;BME280;54998;42.656;23.382;2023-04-23T09:43:57;94786.44;;;24.69;25.91
68179;BME280;54998;42.656;23.382;2023-04-23T09:46:38;94788.53;;;27.61;22.81
68179;BME280;54998;42.656;23.382;2023-04-23T09:49:04;94787.00;;;30.09;20.44
68179;BME280;54998;42.656;23.382;2023-04-23T09:51:37;94777.88;;;28.80;21.77
68179;BME280;54998;42.656;23.382;2023-04-23T09:54:10;94773.88;;;28.78;21.37
68179;BME280;54998;42.656;23.382;2023-04-23T09:56:36;94778.97;;;27.82;21.76
68179;BME280;54998;42.656;23.382;2023-04-23T09:59:01;94773.16;;;26.87;23.20
68179;BME280;54998;42.656;23.382;2023-04-23T10:01:27;94772.69;;;27.34;22.70
68179;BME280;54998;42.656;23.382;2023-04-23T10:03:54;94770.22;;;26.83;23.05
68179;BME280;54998;42.656;23.382;2023-04-23T10:06:26;94763.84;;;24.21;26.29
68179;BME280;54998;42.656;23.382;2023-04-23T10:08:55;94762.63;;;26.48;23.61
68179;BME280;54998;42.656;23.382;2023-04-23T10:11:24;94756.75;;;28.38;21.20
68179;BME280;54998;42.656;23.382;2023-04-23T10:13:50;94755.00;;;26.52;23.04
68179;BME280;54998;42.656;23.382;2023-04-23T10:16:18;94761.44;;;28.31;21.13
68179;BME280;54998;42.656;23.382;2023-04-23T10:18:45;94753.81;;;27.42;21.54
68179;BME280;54998;42.656;23.382;2023-04-23T10:21:13;94751.78;;;26.83;22.34
68179;BME280;54998;42.656;23.382;2023-04-23T10:23:41;94748.53;;;24.89;24.29
68179;BME280;54998;42.656;23.382;2023-04-23T10:26:09;94740.97;;;25.78;23.72
68179;BME280;54998;42.656;23.382;2023-04-23T10:28:38;94740.69;;;26.42;23.06
68179;BME280;54998;42.656;23.382;2023-04-23T10:31:05;94730.63;;;27.72;21.38
68179;BME280;54998;42.656;23.382;2023-04-23T10:33:30;94729.84;;;27.00;21.84
68179;BME280;54998;42.656;23.382;2023-04-23T10:35:56;94722.41;;;27.95;20.71
68179;BME280;54998;42.656;23.382;2023-04-23T10:38:22;94732.91;;;25.97;21.95
68179;BME280;54998;42.656;23.382;2023-04-23T10:40:50;94728.03;;;25.89;22.17
68179;BME280;54998;42.656;23.382;2023-04-23T10:43:18;94721.91;;;26.95;21.38
68179;BME280;54998;42.656;23.382;2023-04-23T10:45:44;94725.75;;;27.09;21.16
68179;BME280;54998;42.656;23.382;2023-04-23T10:48:09;94717.28;;;26.24;22.17
68179;BME280;54998;42.656;23.382;2023-04-23T10:50:35;94713.50;;;27.74;20.32
68179;BME280;54998;42.656;23.382;2023-04-23T10:53:02;94704.25;;;28.41;20.06
68179;BME280;54998;42.656;23.382;2023-04-23T10:55:29;94702.75;;;26.21;22.58
68179;BME280;54998;42.656;23.382;2023-04-23T10:58:00;94699.66;;;27.57;20.57
68179;BME280;54998;42.656;23.382;2023-04-23T11:00:27;94700.94;;;27.27;20.97
68179;BME280;54998;42.656;23.382;2023-04-23T11:02:53;94693.09;;;27.10;21.25
68179;BME280;54998;42.656;23.382;2023-04-23T11:05:21;94698.09;;;27.07;20.52
68179;BME280;54998;42.656;23.382;2023-04-23T11:08:07;94692.22;;;26.38;20.71
68179;BME280;54998;42.656;23.382;2023-04-23T11:10:50;94692.56;;;27.08;19.84
68179;BME280;54998;42.656;23.382;2023-04-23T11:13:22;94696.06;;;26.92;21.11
68179;BME280;54998;42.656;23.382;2023-04-23T11:16:20;94697.34;;;26.28;21.41
68179;BME280;54998;42.656;23.382;2023-04-23T11:19:08;94687.34;;;26.47;19.88
68179;BME280;54998;42.656;23.382;2023-04-23T11:24:32;94666.91;;;25.19;20.91
68179;BME280;54998;42.656;23.382;2023-04-23T11:26:58;94663.88;;;26.07;20.01
68179;BME280;54998;42.656;23.382;2023-04-23T11:29:25;94670.03;;;25.16;21.35
68179;BME280;54998;42.656;23.382;2023-04-23T11:31:52;94677.06;;;23.87;22.10
68179;BME280;54998;42.656;23.382;2023-04-23T11:34:18;94666.97;;;25.36;21.59
68179;BME280;54998;42.656;23.382;2023-04-23T11:36:45;94660.38;;;25.50;20.59
68179;BME280;54998;42.656;23.382;2023-04-23T11:39:12;94654.84;;;27.24;18.91
68179;BME280;54998;42.656;23.382;2023-04-23T11:41:37;94658.41;;;25.74;19.32
68179;BME280;54998;42.656;23.382;2023-04-23T11:44:03;94647.63;;;25.13;20.56
68179;BME280;54998;42.656;23.382;2023-04-23T11:46:29;94639.50;;;26.50;19.22
68179;BME280;54998;42.656;23.382;2023-04-23T11:48:55;94643.41;;;25.24;20.44
68179;BME280;54998;42.656;23.382;2023-04-23T11:51:27;94649.34;;;24.50;20.98
68179;BME280;54998;42.656;23.382;2023-04-23T11:53:52;94640.84;;;23.84;22.10
68179;BME280;54998;42.656;23.382;2023-04-23T11:56:18;94633.78;;;22.70;23.49
68179;BME280;54998;42.656;23.382;2023-04-23T11:58:57;94632.84;;;22.34;24.13
68179;BME280;54998;42.656;23.382;2023-04-23T12:01:23;94640.38;;;23.22;22.12
68179;BME280;54998;42.656;23.382;2023-04-23T12:03:49;94631.56;;;24.40;21.07
68179;BME280;54998;42.656;23.382;2023-04-23T12:06:16;94624.13;;;24.61;20.63
68179;BME280;54998;42.656;23.382;2023-04-23T12:08:45;94620.84;;;25.11;19.45
68179;BME280;54998;42.656;23.382;2023-04-23T12:11:11;94624.41;;;24.36;20.94
68179;BME280;54998;42.656;23.382;2023-04-23T12:13:39;94628.09;;;22.92;22.03
68179;BME280;54998;42.656;23.382;2023-04-23T12:16:04;94623.09;;;22.90;22.43
68179;BME280;54998;42.656;23.382;2023-04-23T12:18:34;94625.31;;;23.47;21.65
68179;BME280;54998;42.656;23.382;2023-04-23T12:21:12;94612.22;;;25.61;18.67
68179;BME280;54998;42.656;23.382;2023-04-23T12:23:39;94613.53;;;24.56;19.92
68179;BME280;54998;42.656;23.382;2023-04-23T12:26:13;94618.16;;;24.25;20.17
68179;BME280;54998;42.656;23.382;2023-04-23T12:28:58;94608.22;;;23.45;21.21
68179;BME280;54998;42.656;23.382;2023-04-23T12:31:25;94614.28;;;22.18;23.12
68179;BME280;54998;42.656;23.382;2023-04-23T12:34:08;94609.00;;;21.62;23.68
68179;BME280;54998;42.656;23.382;2023-04-23T12:36:36;94618.13;;;21.21;23.68
68179;BME280;54998;42.656;23.382;2023-04-23T12:39:19;94608.25;;;19.88;24.43
68179;BME280;54998;42.656;23.382;2023-04-23T12:41:45;94615.06;;;19.62;24.87
68179;BME280;54998;42.656;23.382;2023-04-23T12:44:10;94604.88;;;19.34;24.82
68179;BME280;54998;42.656;23.382;2023-04-23T12:46:36;94605.88;;;19.73;24.87
68179;BME280;54998;42.656;23.382;2023-04-23T12:49:01;94602.84;;;19.89;24.81
68179;BME280;54998;42.656;23.382;2023-04-23T12:51:27;94600.00;;;20.11;24.38
68179;BME280;54998;42.656;23.382;2023-04-23T12:53:52;94601.28;;;19.75;24.39
68179;BME280;54998;42.656;23.382;2023-04-23T12:56:19;94599.09;;;19.52;24.79
68179;BME280;54998;42.656;23.382;2023-04-23T12:58:44;94599.66;;;19.81;24.41
68179;BME280;54998;42.656;23.382;2023-04-23T13:01:10;94595.63;;;19.98;24.09
68179;BME280;54998;42.656;23.382;2023-04-23T13:03:36;94590.84;;;19.95;24.83
68179;BME280;54998;42.656;23.382;2023-04-23T13:06:02;94597.22;;;19.99;24.49
68179;BME280;54998;42.656;23.382;2023-04-23T13:08:27;94600.25;;;19.96;24.77
68179;BME280;54998;42.656;23.382;2023-04-23T13:10:53;94590.97;;;20.14;24.17
68179;BME280;54998;42.656;23.382;2023-04-23T13:13:18;94601.19;;;20.15;24.37
68179;BME280;54998;42.656;23.382;2023-04-23T13:15:44;94588.84;;;19.84;23.78
68179;BME280;54998;42.656;23.382;2023-04-23T13:18:09;94588.06;;;19.50;23.84
68179;BME280;54998;42.656;23.382;2023-04-23T13:20:35;94592.03;;;19.93;23.95
68179;BME280;54998;42.656;23.382;2023-04-23T13:23:00;94590.19;;;20.13;23.70
68179;BME280;54998;42.656;23.382;2023-04-23T13:25:27;94588.03;;;20.48;23.87
68179;BME280;54998;42.656;23.382;2023-04-23T13:27:54;94594.28;;;19.82;23.89
68179;BME280;54998;42.656;23.382;2023-04-23T14:16:26;94579.66;;;18.95;24.14
68179;BME280;54998;42.656;23.382;2023-04-23T14:18:52;94559.41;;;18.77;25.22
68179;BME280;54998;42.656;23.382;2023-04-23T14:21:17;94565.25;;;18.92;26.08
68179;BME280;54998;42.656;23.382;2023-04-23T14:26:20;94566.09;;;18.38;27.40
68179;BME280;54998;42.656;23.382;2023-04-23T14:28:50;94562.19;;;18.07;28.26
68179;BME280;54998;42.656;23.382;2023-04-23T14:31:16;94561.22;;;18.15;28.94
68179;BME280;54998;42.656;23.382;2023-04-23T14:33:41;94557.63;;;18.09;30.41
68179;BME280;54998;42.656;23.382;2023-04-23T14:36:07;94556.97;;;17.65;33.65
68179;BME280;54998;42.656;23.382;2023-04-23T14:38:32;94556.91;;;17.24;34.99
68179;BME280;54998;42.656;23.382;2023-04-23T14:40:57;94559.97;;;17.13;35.75
68179;BME280;54998;42.656;23.382;2023-04-23T14:43:23;94550.16;;;16.65;36.57
68179;BME280;54998;42.656;23.382;2023-04-23T14:45:48;94558.63;;;16.74;36.33
68179;BME280;54998;42.656;23.382;2023-04-23T14:48:15;94555.16;;;16.67;35.96
68179;BME280;54998;42.656;23.382;2023-04-23T14:50:40;94552.09;;;16.78;35.55
68179;BME280;54998;42.656;23.382;2023-04-23T14:53:06;94550.19;;;16.87;35.95
68179;BME280;54998;42.656;23.382;2023-04-23T14:55:34;94541.63;;;16.86;36.54
68179;BME280;54998;42.656;23.382;2023-04-23T14:57:59;94558.00;;;16.72;35.98
68179;BME280;54998;42.656;23.382;2023-04-23T15:00:25;94557.75;;;16.67;35.43
68179;BME280;54998;42.656;23.382;2023-04-23T15:02:51;94555.22;;;16.52;36.64
68179;BME280;54998;42.656;23.382;2023-04-23T15:05:16;94546.66;;;16.51;36.61
68179;BME280;54998;42.656;23.382;2023-04-23T15:07:44;94554.59;;;16.50;36.63
68179;BME280;54998;42.656;23.382;2023-04-23T15:10:09;94556.78;;;16.46;35.99
68179;BME280;54998;42.656;23.382;2023-04-23T15:12:42;94540.69;;;16.51;36.06
68179;BME280;54998;42.656;23.382;2023-04-23T15:15:14;94537.84;;;16.67;35.04
68179;BME280;54998;42.656;23.382;2023-04-23T15:17:44;94547.38;;;16.81;34.36
68179;BME280;54998;42.656;23.382;2023-04-23T15:20:09;94558.66;;;16.95;32.75
68179;BME280;54998;42.656;23.382;2023-04-23T15:22:35;94535.84;;;16.69;32.39
68179;BME280;54998;42.656;23.382;2023-04-23T15:25:01;94541.47;;;16.73;32.00
68179;BME280;54998;42.656;23.382;2023-04-23T15:27:26;94545.31;;;16.77;31.68
68179;BME280;54998;42.656;23.382;2023-04-23T15:29:52;94544.50;;;16.76;31.88
68179;BME280;54998;42.656;23.382;2023-04-23T15:32:17;94545.22;;;16.85;31.32
68179;BME280;54998;42.656;23.382;2023-04-23T15:34:43;94543.09;;;16.95;31.22
68179;BME280;54998;42.656;23.382;2023-04-23T15:37:08;94536.38;;;17.01;31.33
68179;BME280;54998;42.656;23.382;2023-04-23T15:39:33;94526.69;;;16.88;32.42
68179;BME280;54998;42.656;23.382;2023-04-23T15:41:59;94533.34;;;16.97;33.44
68179;BME280;54998;42.656;23.382;2023-04-23T15:44:24;94528.41;;;17.02;33.89